Portada
METAR-TAF:

METAR-TAF

Aeroports :

Alexandria, Egipte

latitud: 31-12N, longitud: 029-57E, altitud: -2 m

Observació

L'informe es va fer fa 11 hores i 2 minuts, a les 18:00 UTC
Vent 8 kt del Nord/Nord-Oest
Temperatura 27°C
Humitat 74%
Pressió 1010 hPa
Visibilitat 10 km o més
sense núvols per sota de 1500 mi sense presència de cumulonimbus.

METAR: HEAX 161800Z 34008KT CAVOK 27/22 Q1010 NOSIG

Hora: 07:02 (05:02 UTC)

Pronòstic

L'informe es va fer fa 6 hores i 2 minuts, a les 23:00 UTC
Pronòstic vàlid del 17 a les 00 UTC al 18 a les 06 UTC
Vent 7 kt del Nord/Nord-Oest
Visibilitat 10 km o més
sense núvols per sota de 1500 mi sense presència de cumulonimbus.

TAF: HEAX 162300Z 1700/1806 34007KT CAVOK

Observacions i pronòstics meteorològics de més de 4000 aeroports (METAR i TAF).

Les estacions disponibles són els punts grocs i vermells al mapa.

Posi el ratolí al punt desitjat per veure el nom de l'estació.

Feu clic per veure les observacions i els pronòstics meteorològics.

Per canviar el mapa: feu clic els botons verds amb una creu de color negre per apropar; al botó verd amb un guió per allunyar la imatge; o en les fletxes verdes per a mapes adjacents.


METAR-TAF: